createdAt,value
2019-02-16T00:01:35.352Z,12.57
2019-02-16T00:04:02.890Z,13.87
2019-02-16T00:09:20.362Z,12.47
2019-02-16T00:11:48.064Z,13.17
2019-02-16T00:14:15.620Z,14.13
2019-02-16T00:16:43.664Z,12.70
2019-02-16T00:19:11.298Z,12.60
2019-02-16T00:21:39.217Z,13.13
2019-02-16T00:24:06.856Z,14.40
2019-02-16T00:26:34.497Z,13.00
2019-02-16T00:29:02.184Z,13.53
2019-02-16T00:31:30.366Z,14.07
2019-02-16T00:33:57.927Z,13.27
2019-02-16T00:36:26.539Z,13.87
2019-02-16T00:38:54.325Z,14.13
2019-02-16T00:41:22.119Z,14.10
2019-02-16T00:43:50.343Z,13.33
2019-02-16T00:46:18.257Z,14.33
2019-02-16T00:48:46.206Z,13.37
2019-02-16T00:51:14.135Z,12.73
2019-02-16T00:53:41.851Z,12.77
2019-02-16T00:56:09.535Z,13.70
2019-02-16T00:58:37.152Z,13.57
2019-02-16T01:01:05.065Z,14.40
2019-02-16T01:03:32.784Z,13.77
2019-02-16T01:06:00.386Z,14.00
2019-02-16T01:08:27.975Z,13.00
2019-02-16T01:10:55.401Z,13.87
2019-02-16T01:13:23.150Z,15.47
2019-02-16T01:15:50.683Z,15.77
2019-02-16T01:21:00.471Z,14.90
2019-02-16T01:23:27.938Z,15.87
2019-02-16T01:25:55.480Z,15.87
2019-02-16T01:28:23.037Z,15.73
2019-02-16T01:30:50.636Z,14.77
2019-02-16T01:33:18.517Z,14.90
2019-02-16T01:35:46.100Z,14.83
2019-02-16T01:38:13.701Z,15.63
2019-02-16T01:40:41.300Z,15.37
2019-02-16T01:43:08.928Z,15.33
2019-02-16T01:45:36.796Z,18.03
2019-02-16T01:48:04.331Z,16.60
2019-02-16T01:50:31.892Z,17.37
2019-02-16T01:52:59.928Z,19.13
2019-02-16T01:55:27.797Z,17.47
2019-02-16T01:57:56.412Z,16.27
2019-02-16T02:00:24.285Z,16.87
2019-02-16T02:02:51.908Z,17.37
2019-02-16T02:05:19.571Z,16.80
2019-02-16T02:07:47.183Z,16.33
2019-02-16T02:10:15.051Z,16.40
2019-02-16T02:12:42.842Z,17.97
2019-02-16T02:15:10.749Z,17.17
2019-02-16T02:17:38.380Z,17.30
2019-02-16T02:20:06.554Z,16.83
2019-02-16T02:22:34.167Z,15.90
2019-02-16T02:25:01.734Z,17.67
2019-02-16T02:27:29.642Z,16.37
2019-02-16T02:29:58.344Z,16.97
2019-02-16T02:32:25.981Z,17.67
2019-02-16T02:35:06.220Z,15.57
2019-02-16T02:37:34.130Z,16.97
2019-02-16T02:45:41.613Z,16.30
2019-02-16T02:51:06.639Z,14.30
2019-02-16T02:53:34.279Z,15.90
2019-02-16T02:56:01.878Z,15.63
2019-02-16T02:58:29.794Z,15.73
2019-02-16T03:00:57.361Z,15.83
2019-02-16T03:03:24.993Z,16.77
2019-02-16T03:05:52.633Z,15.13
2019-02-16T03:08:20.246Z,14.77
2019-02-16T03:10:48.197Z,15.33
2019-02-16T03:13:16.051Z,14.83
2019-02-16T03:15:43.700Z,15.03
2019-02-16T03:18:11.296Z,15.87
2019-02-16T03:20:38.902Z,15.87
2019-02-16T03:23:32.016Z,16.17
2019-02-16T03:26:10.834Z,16.40
2019-02-16T03:28:40.496Z,15.93
2019-02-16T03:31:26.304Z,14.70
2019-02-16T03:33:59.945Z,16.13
2019-02-16T03:36:48.481Z,16.03
2019-02-16T03:39:17.583Z,17.57
2019-02-16T03:41:45.218Z,16.73
2019-02-16T03:44:12.798Z,17.33
2019-02-16T03:49:27.287Z,18.30
2019-02-16T03:51:54.924Z,16.03
2019-02-16T03:54:22.847Z,15.73
2019-02-16T03:56:50.426Z,15.63
2019-02-16T03:59:18.302Z,17.17
2019-02-16T04:01:45.893Z,16.43
2019-02-16T04:07:13.528Z,17.70
2019-02-16T04:09:41.465Z,17.37
2019-02-16T04:12:09.048Z,18.20
2019-02-16T04:17:26.657Z,15.67
2019-02-16T04:19:54.568Z,16.90
2019-02-16T04:22:24.784Z,16.77
2019-02-16T04:24:51.579Z,16.70
2019-02-16T04:27:19.136Z,16.33
2019-02-16T04:29:46.708Z,15.93
2019-02-16T04:32:14.233Z,15.63
2019-02-16T04:34:41.790Z,17.57
2019-02-16T04:37:09.352Z,16.73
2019-02-16T04:39:37.915Z,17.00
2019-02-16T04:42:05.354Z,16.93
2019-02-16T04:44:32.912Z,19.10
2019-02-16T04:47:00.440Z,17.50
2019-02-16T04:49:27.998Z,17.50
2019-02-16T04:51:57.569Z,19.07
2019-02-16T04:54:25.158Z,19.07
2019-02-16T04:56:52.753Z,19.00
2019-02-16T04:59:20.287Z,19.40
2019-02-16T05:01:47.862Z,21.33
2019-02-16T05:04:17.690Z,20.97
2019-02-16T05:06:45.522Z,21.60
2019-02-16T05:09:12.972Z,18.87
2019-02-16T05:11:42.599Z,19.77
2019-02-16T05:14:10.141Z,19.93
2019-02-16T05:16:38.737Z,20.73
2019-02-16T05:19:06.534Z,19.83
2019-02-16T05:21:34.086Z,20.97
2019-02-16T05:24:01.638Z,20.37
2019-02-16T05:29:18.922Z,20.83
2019-02-16T05:31:46.694Z,19.77
2019-02-16T05:34:14.506Z,19.30
2019-02-16T05:36:42.718Z,21.23
2019-02-16T05:39:10.638Z,21.40
2019-02-16T05:41:38.534Z,20.67
2019-02-16T05:44:06.363Z,22.83
2019-02-16T05:46:34.231Z,21.10
2019-02-16T05:49:02.075Z,20.57
2019-02-16T05:51:29.880Z,21.30
2019-02-16T05:53:57.683Z,21.43
2019-02-16T05:56:25.440Z,21.70
2019-02-16T05:58:53.229Z,22.43
2019-02-16T06:01:21.020Z,24.63
2019-02-16T06:03:49.224Z,23.47
2019-02-16T06:06:17.490Z,21.37
2019-02-16T06:08:46.393Z,22.00
2019-02-16T06:11:14.536Z,27.20
2019-02-16T06:13:43.314Z,25.80
2019-02-16T06:16:12.562Z,25.50
2019-02-16T06:18:40.870Z,24.43
2019-02-16T06:21:09.324Z,23.30
2019-02-16T06:23:37.046Z,29.17
2019-02-16T06:26:04.943Z,27.30
2019-02-16T06:28:32.666Z,28.63
2019-02-16T06:31:00.480Z,29.27
2019-02-16T06:33:28.436Z,25.87
2019-02-16T06:36:07.186Z,24.73
2019-02-16T06:38:34.888Z,24.57
2019-02-16T06:41:02.716Z,27.47
2019-02-16T06:43:30.632Z,31.73
2019-02-16T06:46:00.900Z,32.17
2019-02-16T06:48:30.146Z,32.20
2019-02-16T06:50:57.910Z,31.63
2019-02-16T06:53:26.891Z,30.97
2019-02-16T06:56:12.692Z,26.23
2019-02-16T06:58:40.576Z,24.87
2019-02-16T07:01:08.401Z,22.73
2019-02-16T07:03:36.686Z,21.00
2019-02-16T07:06:09.240Z,23.70
2019-02-16T07:08:38.133Z,21.90
2019-02-16T07:11:09.722Z,21.63
2019-02-16T07:13:38.351Z,22.33
2019-02-16T07:16:23.917Z,22.40
2019-02-16T07:19:02.614Z,22.87
2019-02-16T07:21:30.800Z,21.90
2019-02-16T07:23:58.687Z,21.53
2019-02-16T07:26:26.973Z,21.87
2019-02-16T07:28:54.787Z,21.77
2019-02-16T07:31:22.692Z,21.43
2019-02-16T07:33:50.575Z,21.13
2019-02-16T07:36:22.023Z,23.43
2019-02-16T07:38:49.525Z,21.00
2019-02-16T07:41:17.859Z,19.77
2019-02-16T07:44:05.111Z,21.37
2019-02-16T07:46:43.419Z,20.10
2019-02-16T07:49:20.517Z,21.53
2019-02-16T07:52:03.767Z,19.20
2019-02-16T07:54:51.062Z,19.73
2019-02-16T07:57:41.355Z,19.40
2019-02-16T08:00:37.536Z,20.93
2019-02-16T08:03:24.792Z,18.73
2019-02-16T08:06:01.013Z,19.17
2019-02-16T08:08:50.647Z,19.60
2019-02-16T08:11:39.463Z,18.20
2019-02-16T08:14:25.327Z,19.67
2019-02-16T08:17:21.391Z,17.77
2019-02-16T08:20:02.360Z,19.53
2019-02-16T08:23:00.969Z,17.30
2019-02-16T08:25:47.701Z,19.00
2019-02-16T08:28:29.313Z,17.50
2019-02-16T08:31:13.688Z,17.97
2019-02-16T08:33:54.731Z,19.47
2019-02-16T08:36:44.764Z,20.67
2019-02-16T08:39:32.199Z,17.27
2019-02-16T08:42:18.749Z,17.30
2019-02-16T08:45:04.488Z,18.53
2019-02-16T08:47:50.032Z,18.60
2019-02-16T08:50:44.128Z,20.73
2019-02-16T08:53:31.681Z,21.33
2019-02-16T08:56:09.267Z,19.33
2019-02-16T08:58:56.547Z,18.23
2019-02-16T09:01:54.977Z,19.70
2019-02-16T09:04:41.231Z,17.53
2019-02-16T09:07:40.419Z,17.77
2019-02-16T09:10:42.663Z,16.97
2019-02-16T09:13:18.125Z,18.93
2019-02-16T09:16:00.753Z,17.87
2019-02-16T09:18:53.699Z,18.33
2019-02-16T09:21:39.336Z,18.17
2019-02-16T09:24:25.023Z,18.47
2019-02-16T09:27:25.068Z,18.00
2019-02-16T09:30:24.521Z,18.00
2019-02-16T09:33:10.687Z,17.73
2019-02-16T09:35:44.468Z,18.53
2019-02-16T09:38:46.787Z,17.10
2019-02-16T09:41:36.692Z,16.83
2019-02-16T09:44:23.388Z,19.70
2019-02-16T09:47:09.389Z,18.50
2019-02-16T09:50:11.819Z,19.60
2019-02-16T09:53:15.764Z,17.30
2019-02-16T09:56:01.586Z,18.17
2019-02-16T09:59:00.813Z,17.60
2019-02-16T10:01:35.748Z,17.47
2019-02-16T10:04:20.457Z,17.93
2019-02-16T10:07:10.701Z,17.73
2019-02-16T10:13:07.776Z,18.10
2019-02-16T10:16:06.353Z,17.93
2019-02-16T10:27:47.971Z,17.50
2019-02-16T10:30:35.953Z,16.77
2019-02-16T10:33:23.058Z,17.27
2019-02-16T10:36:16.236Z,17.77
2019-02-16T10:39:06.032Z,18.30
2019-02-16T10:41:51.620Z,16.97
2019-02-16T10:44:48.746Z,19.13
2019-02-16T10:47:21.979Z,16.83
2019-02-16T10:50:24.147Z,17.33
2019-02-16T10:52:57.958Z,18.17
2019-02-16T10:55:50.869Z,17.77
2019-02-16T10:58:53.218Z,18.30
2019-02-16T11:01:28.234Z,17.43
2019-02-16T11:04:11.163Z,19.13
2019-02-16T11:06:56.231Z,18.63
2019-02-16T11:09:43.494Z,17.57
2019-02-16T11:12:39.806Z,19.03
2019-02-16T11:15:40.286Z,18.23
2019-02-16T11:18:34.290Z,18.70
2019-02-16T11:21:24.519Z,17.73
2019-02-16T11:24:06.605Z,18.70
2019-02-16T11:26:41.820Z,17.60
2019-02-16T11:29:27.368Z,18.43
2019-02-16T11:32:07.897Z,16.83
2019-02-16T11:34:57.902Z,18.40
2019-02-16T11:40:28.307Z,17.53
2019-02-16T11:43:33.725Z,16.57
2019-02-16T11:46:26.724Z,17.47
2019-02-16T11:49:12.531Z,17.80
2019-02-16T11:51:57.244Z,17.83
2019-02-16T11:54:46.279Z,20.02
2019-02-16T11:57:40.539Z,18.83
2019-02-16T12:00:25.219Z,19.98
2019-02-16T12:03:13.601Z,18.07
2019-02-16T12:05:59.783Z,17.33
2019-02-16T12:08:45.441Z,18.70
2019-02-16T12:11:32.541Z,18.33
2019-02-16T12:14:19.063Z,17.37
2019-02-16T12:17:06.961Z,17.90
2019-02-16T12:20:02.899Z,16.90
2019-02-16T12:22:48.011Z,16.17
2019-02-16T12:25:33.786Z,18.25
2019-02-16T12:28:21.521Z,16.07
2019-02-16T12:31:11.658Z,17.00
2019-02-16T12:34:03.882Z,17.87
2019-02-16T12:36:49.593Z,17.17
2019-02-16T12:39:39.708Z,17.13
2019-02-16T12:45:11.513Z,17.97
2019-02-16T12:48:07.812Z,18.62
2019-02-16T12:50:54.903Z,17.33
2019-02-16T12:53:41.927Z,18.00
2019-02-16T12:56:45.205Z,19.33
2019-02-16T12:59:32.417Z,18.92
2019-02-16T13:02:29.331Z,18.73
2019-02-16T13:05:14.792Z,17.60
2019-02-16T13:08:13.795Z,16.90
2019-02-16T13:10:58.303Z,18.45
2019-02-16T13:13:54.381Z,17.53
2019-02-16T13:16:39.082Z,18.83
2019-02-16T13:19:24.798Z,18.83
2019-02-16T13:22:00.526Z,19.07
2019-02-16T13:25:01.732Z,18.97
2019-02-16T13:28:03.959Z,18.60
2019-02-16T13:30:50.949Z,19.00
2019-02-16T13:33:43.993Z,19.70
2019-02-16T13:36:31.039Z,20.77
2019-02-16T13:39:28.259Z,20.20
2019-02-16T13:45:18.615Z,20.17
2019-02-16T13:47:51.544Z,21.10
2019-02-16T13:50:31.695Z,20.75
2019-02-16T13:53:05.163Z,21.77
2019-02-16T13:56:10.195Z,21.63
2019-02-16T13:58:56.663Z,20.13
2019-02-16T14:01:55.885Z,20.82
2019-02-16T14:04:51.891Z,21.62
2019-02-16T14:07:42.141Z,21.70
2019-02-16T14:10:26.973Z,22.23
2019-02-16T14:13:14.061Z,21.10
2019-02-16T14:15:52.989Z,20.80
2019-02-16T14:18:20.585Z,22.90
2019-02-16T14:20:49.137Z,19.77
2019-02-16T14:23:16.881Z,20.30
2019-02-16T14:25:45.947Z,21.37
2019-02-16T14:28:13.557Z,19.40
2019-02-16T14:30:41.357Z,20.67
2019-02-16T14:33:08.999Z,20.93
2019-02-16T14:35:36.986Z,20.80
2019-02-16T14:38:30.176Z,19.92
2019-02-16T14:40:57.949Z,20.23
2019-02-16T14:43:25.523Z,20.37
2019-02-16T14:51:30.813Z,20.72
2019-02-16T14:53:59.446Z,21.95
2019-02-16T14:56:26.999Z,20.77
2019-02-16T14:58:54.557Z,21.47
2019-02-16T15:01:22.114Z,20.45
2019-02-16T15:03:49.671Z,20.67
2019-02-16T15:06:17.231Z,21.10
2019-02-16T15:08:44.832Z,21.40
2019-02-16T15:11:12.338Z,21.53
2019-02-16T15:13:39.868Z,20.70
2019-02-16T15:16:07.441Z,21.10
2019-02-16T15:18:35.235Z,20.82
2019-02-16T15:21:02.819Z,21.65
2019-02-16T15:23:30.354Z,22.83
2019-02-16T15:26:01.019Z,22.13
2019-02-16T15:28:27.549Z,20.88
2019-02-16T15:30:55.135Z,21.12
2019-02-16T15:33:23.837Z,21.48
2019-02-16T15:35:51.693Z,20.65
2019-02-16T15:38:19.225Z,21.25
2019-02-16T15:40:47.068Z,21.50
2019-02-16T15:43:14.606Z,21.35
2019-02-16T15:45:42.197Z,20.97
2019-02-16T15:48:09.744Z,21.42
2019-02-16T15:50:37.323Z,22.07
2019-02-16T15:53:04.773Z,20.60
2019-02-16T15:55:43.234Z,23.60
2019-02-16T15:58:10.788Z,22.15
2019-02-16T16:03:24.296Z,22.57
2019-02-16T16:48:06.488Z,22.83
2019-02-16T16:50:53.191Z,24.53
2019-02-16T16:53:40.597Z,23.80
2019-02-16T16:56:28.918Z,24.70
2019-02-16T16:59:16.085Z,23.47
2019-02-16T17:02:10.481Z,25.43
2019-02-16T17:05:12.587Z,25.63
2019-02-16T17:08:00.992Z,26.23
2019-02-16T17:10:46.563Z,26.50
2019-02-16T17:13:37.977Z,25.73
2019-02-16T17:16:27.798Z,27.63
2019-02-16T17:19:23.749Z,29.73
2019-02-16T17:22:20.683Z,31.17
2019-02-16T17:25:15.018Z,31.33
2019-02-16T17:28:15.027Z,34.80
2019-02-16T17:31:02.185Z,30.47
2019-02-16T17:33:54.749Z,29.47
2019-02-16T17:36:51.863Z,29.00
2019-02-16T17:39:25.686Z,33.67
2019-02-16T17:45:19.015Z,41.20
2019-02-16T17:48:09.182Z,40.57
2019-02-16T17:51:05.268Z,38.10
2019-02-16T17:53:45.320Z,38.37
2019-02-16T17:56:18.574Z,43.23
2019-02-16T17:59:08.700Z,37.20
2019-02-16T18:02:02.446Z,44.85
2019-02-16T18:04:48.190Z,35.77
2019-02-16T18:07:42.346Z,33.50
2019-02-16T18:10:29.490Z,36.07
2019-02-16T18:13:17.117Z,38.03
2019-02-16T18:16:10.262Z,36.50
2019-02-16T18:18:53.474Z,35.50
2019-02-16T18:21:58.654Z,44.98
2019-02-16T18:24:43.452Z,38.37
2019-02-16T18:27:33.826Z,39.87
2019-02-16T18:30:21.238Z,41.27
2019-02-16T18:33:11.892Z,44.67
2019-02-16T18:35:45.843Z,52.37
2019-02-16T18:38:36.480Z,54.53
2019-02-16T18:41:17.736Z,49.23
2019-02-16T18:44:00.906Z,48.23
2019-02-16T18:46:44.680Z,49.67
2019-02-16T18:49:40.692Z,52.57
2019-02-16T18:55:11.316Z,51.37
2019-02-16T19:00:51.244Z,48.77
2019-02-16T19:03:42.114Z,49.40
2019-02-16T19:06:38.076Z,51.20
2019-02-16T19:09:24.486Z,53.40
2019-02-16T19:12:09.278Z,51.33
2019-02-16T19:14:59.341Z,53.07
2019-02-16T19:17:37.577Z,52.50
2019-02-16T19:20:29.339Z,54.63
2019-02-16T19:23:16.473Z,52.40
2019-02-16T19:26:00.060Z,55.37
2019-02-16T19:28:37.021Z,59.40
2019-02-16T19:31:23.233Z,64.33
2019-02-16T19:34:22.440Z,63.73
2019-02-16T19:37:24.744Z,66.67
2019-02-16T19:40:10.188Z,67.10
2019-02-16T19:42:53.821Z,68.20
2019-02-16T19:45:41.219Z,71.97
2019-02-16T19:48:16.834Z,67.33
2019-02-16T19:51:04.329Z,75.83
2019-02-16T19:53:43.750Z,83.43
2019-02-16T19:56:25.981Z,79.70
2019-02-16T19:59:09.621Z,80.93
2019-02-16T20:02:12.930Z,82.57
2019-02-16T20:07:54.775Z,104.23
2019-02-16T20:10:44.809Z,110.03
2019-02-16T20:13:50.284Z,105.37
2019-02-16T20:16:23.884Z,102.93
2019-02-16T20:19:03.838Z,103.20
2019-02-16T20:21:45.432Z,103.13
2019-02-16T20:24:31.144Z,108.87
2019-02-16T20:27:21.167Z,108.00
2019-02-16T20:30:11.534Z,102.87
2019-02-16T20:32:58.830Z,97.73
2019-02-16T20:35:42.374Z,93.00
2019-02-16T20:38:32.897Z,89.23
2019-02-16T20:41:20.101Z,86.37
2019-02-16T20:44:22.393Z,90.40
2019-02-16T20:47:05.329Z,90.47
2019-02-16T20:50:04.285Z,86.27
2019-02-16T20:53:00.699Z,77.47
2019-02-16T20:55:46.765Z,75.17
2019-02-16T20:58:25.287Z,70.60
2019-02-16T21:01:18.650Z,74.30
2019-02-16T21:04:04.596Z,77.20
2019-02-16T21:07:07.276Z,83.97
2019-02-16T21:09:57.379Z,84.27
2019-02-16T21:12:36.143Z,89.17
2019-02-16T21:15:32.175Z,88.97
2019-02-16T21:18:19.435Z,93.13
2019-02-16T21:21:21.251Z,92.93
2019-02-16T21:24:09.658Z,89.07
2019-02-16T21:26:55.159Z,91.03
2019-02-16T21:29:48.190Z,91.93
2019-02-16T21:32:22.063Z,90.87
2019-02-16T21:35:18.737Z,88.50
2019-02-16T21:38:21.925Z,87.97
2019-02-16T21:41:00.769Z,86.47
2019-02-16T21:43:46.571Z,82.13
2019-02-16T21:46:49.183Z,85.83
2019-02-16T21:49:34.455Z,96.00
2019-02-16T21:52:20.109Z,93.53
2019-02-16T21:55:05.554Z,101.37
2019-02-16T21:57:55.477Z,101.33
2019-02-16T22:00:42.635Z,99.33
2019-02-16T22:03:44.423Z,94.87
2019-02-16T22:06:40.646Z,93.47
2019-02-16T22:09:30.922Z,91.87
2019-02-16T22:12:31.184Z,85.53
2019-02-16T22:14:58.845Z,86.07
2019-02-16T22:17:26.460Z,85.20
2019-02-16T22:19:54.087Z,84.97
2019-02-16T22:22:21.958Z,91.53
2019-02-16T22:24:49.599Z,92.50
2019-02-16T22:27:17.235Z,101.97
2019-02-16T22:29:45.897Z,107.27
2019-02-16T22:32:13.392Z,115.03
2019-02-16T22:34:41.051Z,120.83
2019-02-16T22:37:08.741Z,132.17
2019-02-16T22:39:38.565Z,140.20
2019-02-16T22:42:06.324Z,142.63
2019-02-16T22:44:33.907Z,139.83
2019-02-16T22:47:01.547Z,130.73
2019-02-16T22:52:20.465Z,123.40
2019-02-16T22:54:48.172Z,120.63
2019-02-16T22:57:15.889Z,123.67
2019-02-16T22:59:43.760Z,115.90
2019-02-16T23:02:12.047Z,121.80
2019-02-16T23:04:39.725Z,126.67
2019-02-16T23:07:07.429Z,126.80
2019-02-16T23:09:35.175Z,133.10
2019-02-16T23:12:03.370Z,136.17
2019-02-16T23:14:31.091Z,135.13
2019-02-16T23:16:58.848Z,122.40
2019-02-16T23:19:26.865Z,118.80
2019-02-16T23:21:54.585Z,111.37
2019-02-16T23:24:22.264Z,118.10
2019-02-16T23:26:50.377Z,115.97
2019-02-16T23:29:18.358Z,113.73
2019-02-16T23:31:46.083Z,109.07
2019-02-16T23:34:13.821Z,108.50
2019-02-16T23:36:41.526Z,106.53
2019-02-16T23:39:10.628Z,101.40
2019-02-16T23:41:38.349Z,98.43
2019-02-16T23:44:06.029Z,96.23
2019-02-16T23:46:33.818Z,96.27
2019-02-16T23:49:01.506Z,96.30
2019-02-16T23:51:29.345Z,100.83
2019-02-16T23:53:56.931Z,101.97
2019-02-16T23:56:24.822Z,98.70
2019-02-16T23:58:52.432Z,99.37
